sensor_id;sensor_type;location;lat;lon;timestamp;pressure;altitude;pressure_sealevel;temperature;humidity
80511;BME280;69840;53.040;8.600;2023-07-20T00:03:12;101389.88;;;14.11;91.87
80511;BME280;69840;53.040;8.600;2023-07-20T00:07:25;101388.53;;;14.15;90.39
80511;BME280;69840;53.040;8.600;2023-07-20T00:11:38;101387.00;;;14.20;89.53
80511;BME280;69840;53.040;8.600;2023-07-20T00:15:51;101383.50;;;14.28;88.69
80511;BME280;69840;53.040;8.600;2023-07-20T00:20:04;101376.19;;;14.30;90.35
80511;BME280;69840;53.040;8.600;2023-07-20T00:24:17;101382.50;;;14.29;90.66
80511;BME280;69840;53.040;8.600;2023-07-20T00:28:29;101397.09;;;14.33;90.06
80511;BME280;69840;53.040;8.600;2023-07-20T00:32:42;101399.41;;;14.36;90.10
80511;BME280;69840;53.040;8.600;2023-07-20T00:36:55;101395.13;;;14.27;88.56
80511;BME280;69840;53.040;8.600;2023-07-20T00:41:07;101392.66;;;14.25;88.34
80511;BME280;69840;53.040;8.600;2023-07-20T00:45:20;101390.00;;;14.25;88.61
80511;BME280;69840;53.040;8.600;2023-07-20T00:49:32;101391.47;;;14.28;89.72
80511;BME280;69840;53.040;8.600;2023-07-20T00:53:45;101389.66;;;14.28;89.89
80511;BME280;69840;53.040;8.600;2023-07-20T00:57:59;101394.97;;;14.20;90.32
80511;BME280;69840;53.040;8.600;2023-07-20T01:02:12;101391.00;;;14.24;91.20
80511;BME280;69840;53.040;8.600;2023-07-20T01:06:44;101387.16;;;14.27;91.67
80511;BME280;69840;53.040;8.600;2023-07-20T01:11:08;101386.50;;;14.25;92.17
80511;BME280;69840;53.040;8.600;2023-07-20T01:15:22;101387.50;;;14.24;91.85
80511;BME280;69840;53.040;8.600;2023-07-20T01:19:34;101383.84;;;14.25;91.90
80511;BME280;69840;53.040;8.600;2023-07-20T01:24:18;101384.50;;;14.27;91.72
80511;BME280;69840;53.040;8.600;2023-07-20T01:33:04;101388.00;;;14.27;91.90
80511;BME280;69840;53.040;8.600;2023-07-20T01:37:18;101387.00;;;14.28;91.92
80511;BME280;69840;53.040;8.600;2023-07-20T01:41:33;101383.50;;;14.28;92.13
80511;BME280;69840;53.040;8.600;2023-07-20T01:45:46;101381.00;;;14.26;92.59
80511;BME280;69840;53.040;8.600;2023-07-20T01:49:58;101385.50;;;14.26;92.47
80511;BME280;69840;53.040;8.600;2023-07-20T01:54:11;101380.53;;;14.23;93.07
80511;BME280;69840;53.040;8.600;2023-07-20T01:58:24;101399.50;;;14.12;93.23
80511;BME280;69840;53.040;8.600;2023-07-20T02:02:36;101385.50;;;14.18;93.63
80511;BME280;69840;53.040;8.600;2023-07-20T02:06:50;101383.34;;;14.21;93.30
80511;BME280;69840;53.040;8.600;2023-07-20T02:11:02;101387.72;;;14.14;93.79
80511;BME280;69840;53.040;8.600;2023-07-20T02:15:15;101392.25;;;13.97;94.35
80511;BME280;69840;53.040;8.600;2023-07-20T02:19:29;101383.47;;;13.97;95.10
80511;BME280;69840;53.040;8.600;2023-07-20T02:23:42;101378.94;;;14.05;95.18
80511;BME280;69840;53.040;8.600;2023-07-20T02:27:56;101378.91;;;14.14;95.00
80511;BME280;69840;53.040;8.600;2023-07-20T02:32:09;101380.03;;;14.19;94.52
80511;BME280;69840;53.040;8.600;2023-07-20T02:36:22;101377.53;;;14.18;93.80
80511;BME280;69840;53.040;8.600;2023-07-20T02:40:35;101378.38;;;14.18;93.93
80511;BME280;69840;53.040;8.600;2023-07-20T02:44:48;101378.88;;;14.22;94.07
80511;BME280;69840;53.040;8.600;2023-07-20T02:49:01;101382.19;;;14.24;94.02
80511;BME280;69840;53.040;8.600;2023-07-20T02:53:13;101384.53;;;14.19;94.22
80511;BME280;69840;53.040;8.600;2023-07-20T02:57:26;101372.22;;;14.18;93.78
80511;BME280;69840;53.040;8.600;2023-07-20T03:01:38;101375.88;;;14.17;93.87
80511;BME280;69840;53.040;8.600;2023-07-20T03:05:51;101382.03;;;14.17;94.04
80511;BME280;69840;53.040;8.600;2023-07-20T03:10:04;101388.06;;;14.03;93.96
80511;BME280;69840;53.040;8.600;2023-07-20T03:14:17;101391.56;;;14.03;94.66
80511;BME280;69840;53.040;8.600;2023-07-20T03:18:29;101394.84;;;14.14;94.69
80511;BME280;69840;53.040;8.600;2023-07-20T03:22:42;101388.19;;;14.18;94.11
80511;BME280;69840;53.040;8.600;2023-07-20T03:26:55;101401.13;;;14.21;93.90
80511;BME280;69840;53.040;8.600;2023-07-20T03:31:07;101396.81;;;14.20;93.88
80511;BME280;69840;53.040;8.600;2023-07-20T03:35:23;101393.50;;;14.18;93.82
80511;BME280;69840;53.040;8.600;2023-07-20T03:39:36;101393.50;;;14.18;93.73
80511;BME280;69840;53.040;8.600;2023-07-20T03:43:48;101394.97;;;14.20;93.62
80511;BME280;69840;53.040;8.600;2023-07-20T03:48:01;101406.28;;;14.22;93.94
80511;BME280;69840;53.040;8.600;2023-07-20T03:52:13;101405.13;;;14.25;93.52
80511;BME280;69840;53.040;8.600;2023-07-20T03:56:26;101397.63;;;14.28;93.62
80511;BME280;69840;53.040;8.600;2023-07-20T04:00:39;101409.25;;;14.27;92.94
80511;BME280;69840;53.040;8.600;2023-07-20T04:04:51;101414.56;;;14.27;93.03
80511;BME280;69840;53.040;8.600;2023-07-20T04:09:04;101415.41;;;14.28;92.93
80511;BME280;69840;53.040;8.600;2023-07-20T04:13:19;101420.38;;;14.31;92.91
80511;BME280;69840;53.040;8.600;2023-07-20T04:17:31;101418.72;;;14.30;92.91
80511;BME280;69840;53.040;8.600;2023-07-20T04:21:44;101415.06;;;14.31;92.54
80511;BME280;69840;53.040;8.600;2023-07-20T04:25:56;101425.00;;;14.37;92.38
80511;BME280;69840;53.040;8.600;2023-07-20T04:30:10;101420.03;;;14.34;92.47
80511;BME280;69840;53.040;8.600;2023-07-20T04:34:23;101420.03;;;14.42;91.90
80511;BME280;69840;53.040;8.600;2023-07-20T04:38:35;101434.00;;;14.44;91.84
80511;BME280;69840;53.040;8.600;2023-07-20T04:42:58;101433.63;;;14.39;91.81
80511;BME280;69840;53.040;8.600;2023-07-20T04:47:10;101445.63;;;14.35;91.84
80511;BME280;69840;53.040;8.600;2023-07-20T04:51:23;101439.28;;;14.36;91.90
80511;BME280;69840;53.040;8.600;2023-07-20T04:55:39;101439.28;;;14.36;91.29
80511;BME280;69840;53.040;8.600;2023-07-20T04:59:53;101427.84;;;14.44;91.02
80511;BME280;69840;53.040;8.600;2023-07-20T05:04:05;101440.59;;;14.56;90.93
80511;BME280;69840;53.040;8.600;2023-07-20T05:08:19;101441.84;;;14.68;90.26
80511;BME280;69840;53.040;8.600;2023-07-20T05:12:32;101436.16;;;15.02;88.85
80511;BME280;69840;53.040;8.600;2023-07-20T05:16:45;101434.75;;;15.75;85.53
80511;BME280;69840;53.040;8.600;2023-07-20T05:20:57;101442.28;;;16.74;80.17
80511;BME280;69840;53.040;8.600;2023-07-20T05:25:11;101439.84;;;16.94;78.73
80511;BME280;69840;53.040;8.600;2023-07-20T05:29:23;101450.34;;;17.17;75.68
80511;BME280;69840;53.040;8.600;2023-07-20T05:33:35;101444.00;;;17.39;75.52
80511;BME280;69840;53.040;8.600;2023-07-20T05:37:48;101451.63;;;17.21;75.53
80511;BME280;69840;53.040;8.600;2023-07-20T05:42:00;101448.38;;;17.04;75.55
80511;BME280;69840;53.040;8.600;2023-07-20T05:46:13;101458.69;;;17.07;75.38
80511;BME280;69840;53.040;8.600;2023-07-20T05:50:25;101448.81;;;16.57;75.32
80511;BME280;69840;53.040;8.600;2023-07-20T05:54:38;101455.34;;;16.55;75.44
80511;BME280;69840;53.040;8.600;2023-07-20T05:58:51;101462.47;;;16.47;75.01
80511;BME280;69840;53.040;8.600;2023-07-20T06:03:03;101462.66;;;16.46;75.55
80511;BME280;69840;53.040;8.600;2023-07-20T06:07:15;101463.00;;;16.43;74.35
80511;BME280;69840;53.040;8.600;2023-07-20T06:11:28;101461.47;;;16.34;75.05
80511;BME280;69840;53.040;8.600;2023-07-20T06:15:40;101466.81;;;16.48;75.13
80511;BME280;69840;53.040;8.600;2023-07-20T06:19:53;101478.75;;;16.53;74.22
80511;BME280;69840;53.040;8.600;2023-07-20T06:24:05;101470.56;;;16.69;74.95
80511;BME280;69840;53.040;8.600;2023-07-20T06:28:18;101481.22;;;16.54;73.49
80511;BME280;69840;53.040;8.600;2023-07-20T06:32:30;101481.22;;;16.39;73.16
80511;BME280;69840;53.040;8.600;2023-07-20T06:36:43;101483.53;;;16.42;73.44
80511;BME280;69840;53.040;8.600;2023-07-20T06:40:55;101485.91;;;16.08;75.83
80511;BME280;69840;53.040;8.600;2023-07-20T06:45:08;101479.22;;;16.27;73.88
80511;BME280;69840;53.040;8.600;2023-07-20T06:49:27;101476.66;;;16.48;74.31
80511;BME280;69840;53.040;8.600;2023-07-20T06:53:40;101473.84;;;16.86;75.66
80511;BME280;69840;53.040;8.600;2023-07-20T06:57:52;101478.56;;;17.05;73.05
80511;BME280;69840;53.040;8.600;2023-07-20T07:02:10;101481.97;;;16.77;70.74
80511;BME280;69840;53.040;8.600;2023-07-20T07:06:25;101481.44;;;17.03;70.83
80511;BME280;69840;53.040;8.600;2023-07-20T07:10:38;101481.19;;;16.98;70.82
80511;BME280;69840;53.040;8.600;2023-07-20T07:14:50;101480.81;;;16.65;69.51
80511;BME280;69840;53.040;8.600;2023-07-20T07:19:03;101487.16;;;17.00;69.26
80511;BME280;69840;53.040;8.600;2023-07-20T07:23:15;101489.34;;;17.11;65.32
80511;BME280;69840;53.040;8.600;2023-07-20T07:27:28;101494.75;;;17.18;66.40
80511;BME280;69840;53.040;8.600;2023-07-20T07:31:40;101497.44;;;17.39;69.04
80511;BME280;69840;53.040;8.600;2023-07-20T07:35:54;101495.38;;;17.20;64.66
80511;BME280;69840;53.040;8.600;2023-07-20T07:40:06;101488.97;;;17.14;66.22
80511;BME280;69840;53.040;8.600;2023-07-20T07:44:19;101501.25;;;17.30;64.73
80511;BME280;69840;53.040;8.600;2023-07-20T07:48:31;101502.66;;;17.26;66.93
80511;BME280;69840;53.040;8.600;2023-07-20T07:52:44;101500.63;;;17.71;64.66
80511;BME280;69840;53.040;8.600;2023-07-20T07:56:57;101506.91;;;18.12;64.12
80511;BME280;69840;53.040;8.600;2023-07-20T08:01:09;101518.06;;;18.16;63.31
80511;BME280;69840;53.040;8.600;2023-07-20T08:05:22;101516.69;;;17.71;66.30
80511;BME280;69840;53.040;8.600;2023-07-20T08:09:34;101516.69;;;17.71;63.22
80511;BME280;69840;53.040;8.600;2023-07-20T08:13:47;101523.25;;;17.96;60.12
80511;BME280;69840;53.040;8.600;2023-07-20T08:17:59;101524.94;;;18.25;58.97
80511;BME280;69840;53.040;8.600;2023-07-20T08:22:12;101530.50;;;18.02;59.79
80511;BME280;69840;53.040;8.600;2023-07-20T08:26:24;101524.56;;;18.35;57.33
80511;BME280;69840;53.040;8.600;2023-07-20T08:30:42;101524.66;;;18.82;58.94
80511;BME280;69840;53.040;8.600;2023-07-20T08:34:55;101529.75;;;18.71;57.69
80511;BME280;69840;53.040;8.600;2023-07-20T08:39:07;101529.72;;;18.36;55.30
80511;BME280;69840;53.040;8.600;2023-07-20T08:43:22;101518.47;;;18.47;57.33
80511;BME280;69840;53.040;8.600;2023-07-20T08:47:35;101531.41;;;18.72;57.41
80511;BME280;69840;53.040;8.600;2023-07-20T08:51:48;101536.59;;;18.80;57.99
80511;BME280;69840;53.040;8.600;2023-07-20T08:56:02;101537.56;;;18.38;55.19
80511;BME280;69840;53.040;8.600;2023-07-20T09:00:14;101531.13;;;18.60;56.91
80511;BME280;69840;53.040;8.600;2023-07-20T09:04:27;101530.97;;;18.75;55.54
80511;BME280;69840;53.040;8.600;2023-07-20T09:08:40;101535.22;;;18.28;57.57
80511;BME280;69840;53.040;8.600;2023-07-20T09:12:53;101528.78;;;18.50;57.71
80511;BME280;69840;53.040;8.600;2023-07-20T09:17:05;101528.69;;;18.65;58.26
80511;BME280;69840;53.040;8.600;2023-07-20T09:21:18;101529.47;;;19.00;56.34
80511;BME280;69840;53.040;8.600;2023-07-20T09:25:31;101528.69;;;19.26;55.03
80511;BME280;69840;53.040;8.600;2023-07-20T09:29:51;101521.78;;;19.58;52.50
80511;BME280;69840;53.040;8.600;2023-07-20T09:34:04;101520.94;;;20.04;53.91
80511;BME280;69840;53.040;8.600;2023-07-20T09:38:17;101529.41;;;20.01;51.74
80511;BME280;69840;53.040;8.600;2023-07-20T09:42:32;101513.53;;;19.86;52.27
80511;BME280;69840;53.040;8.600;2023-07-20T09:46:48;101521.38;;;19.94;52.32
80511;BME280;69840;53.040;8.600;2023-07-20T09:51:03;101524.47;;;19.78;52.05
80511;BME280;69840;53.040;8.600;2023-07-20T09:55:19;101530.84;;;20.23;50.65
80511;BME280;69840;53.040;8.600;2023-07-20T09:59:32;101532.91;;;20.01;53.77
80511;BME280;69840;53.040;8.600;2023-07-20T10:03:45;101561.41;;;20.02;55.38
80511;BME280;69840;53.040;8.600;2023-07-20T10:07:58;101555.72;;;18.70;62.86
80511;BME280;69840;53.040;8.600;2023-07-20T10:12:15;101554.56;;;17.74;71.59
80511;BME280;69840;53.040;8.600;2023-07-20T10:16:31;101553.41;;;18.11;73.66
80511;BME280;69840;53.040;8.600;2023-07-20T10:20:47;101564.91;;;18.61;70.41
80511;BME280;69840;53.040;8.600;2023-07-20T10:25:04;101556.09;;;18.67;67.80
80511;BME280;69840;53.040;8.600;2023-07-20T10:29:17;101543.88;;;19.80;66.32
80511;BME280;69840;53.040;8.600;2023-07-20T10:33:30;101543.66;;;20.08;68.54
80511;BME280;69840;53.040;8.600;2023-07-20T10:38:12;101531.22;;;20.33;58.83
80511;BME280;69840;53.040;8.600;2023-07-20T10:42:32;101534.78;;;20.98;58.53
80511;BME280;69840;53.040;8.600;2023-07-20T10:46:46;101538.06;;;20.36;56.15
80511;BME280;69840;53.040;8.600;2023-07-20T10:51:11;101537.78;;;20.70;54.99
80511;BME280;69840;53.040;8.600;2023-07-20T10:55:25;101539.06;;;20.48;54.27
80511;BME280;69840;53.040;8.600;2023-07-20T10:59:37;101540.38;;;19.66;54.20
80511;BME280;69840;53.040;8.600;2023-07-20T11:03:50;101530.59;;;20.51;54.42
80511;BME280;69840;53.040;8.600;2023-07-20T11:08:14;101509.94;;;21.97;50.21
80511;BME280;69840;53.040;8.600;2023-07-20T11:12:38;101525.09;;;22.78;48.87
80511;BME280;69840;53.040;8.600;2023-07-20T11:16:51;101527.25;;;22.87;45.50
80511;BME280;69840;53.040;8.600;2023-07-20T11:21:07;101522.44;;;22.53;48.63
80511;BME280;69840;53.040;8.600;2023-07-20T11:25:21;101526.56;;;22.92;48.67
80511;BME280;69840;53.040;8.600;2023-07-20T11:29:34;101523.66;;;23.65;49.37
80511;BME280;69840;53.040;8.600;2023-07-20T11:33:47;101525.34;;;23.06;45.97
80511;BME280;69840;53.040;8.600;2023-07-20T11:37:59;101522.25;;;22.11;46.50
80511;BME280;69840;53.040;8.600;2023-07-20T11:42:12;101518.09;;;22.88;49.32
80511;BME280;69840;53.040;8.600;2023-07-20T11:46:25;101503.03;;;22.26;44.12
80511;BME280;69840;53.040;8.600;2023-07-20T11:50:40;101512.22;;;23.09;46.07
80511;BME280;69840;53.040;8.600;2023-07-20T11:54:53;101505.28;;;23.97;45.27
80511;BME280;69840;53.040;8.600;2023-07-20T11:59:06;101510.75;;;22.59;45.30
80511;BME280;69840;53.040;8.600;2023-07-20T12:03:18;101510.78;;;21.03;50.42
80511;BME280;69840;53.040;8.600;2023-07-20T12:07:35;101510.84;;;20.12;53.94
80511;BME280;69840;53.040;8.600;2023-07-20T12:11:49;101515.19;;;19.74;57.55
80511;BME280;69840;53.040;8.600;2023-07-20T12:16:13;101515.75;;;19.43;56.32
80511;BME280;69840;53.040;8.600;2023-07-20T12:24:39;101541.00;;;19.07;59.62
80511;BME280;69840;53.040;8.600;2023-07-20T12:28:52;101517.72;;;19.08;60.79
80511;BME280;69840;53.040;8.600;2023-07-20T12:33:05;101525.50;;;19.57;60.55
80511;BME280;69840;53.040;8.600;2023-07-20T12:37:18;101529.91;;;18.63;61.74
80511;BME280;69840;53.040;8.600;2023-07-20T12:41:30;101524.75;;;18.61;64.16
80511;BME280;69840;53.040;8.600;2023-07-20T12:45:43;101521.84;;;18.00;63.95
80511;BME280;69840;53.040;8.600;2023-07-20T12:49:56;101525.53;;;17.99;62.92
80511;BME280;69840;53.040;8.600;2023-07-20T12:54:08;101519.56;;;17.97;62.31
80511;BME280;69840;53.040;8.600;2023-07-20T12:58:21;101526.81;;;18.03;63.30
80511;BME280;69840;53.040;8.600;2023-07-20T13:02:33;101516.47;;;17.94;62.90
80511;BME280;69840;53.040;8.600;2023-07-20T13:06:46;101517.28;;;17.94;66.18
80511;BME280;69840;53.040;8.600;2023-07-20T13:10:58;101518.22;;;18.08;65.26
80511;BME280;69840;53.040;8.600;2023-07-20T13:15:11;101519.06;;;17.87;67.30
80511;BME280;69840;53.040;8.600;2023-07-20T13:19:23;101515.53;;;18.08;64.95
80511;BME280;69840;53.040;8.600;2023-07-20T13:23:39;101514.38;;;18.51;67.63
80511;BME280;69840;53.040;8.600;2023-07-20T13:27:52;101507.75;;;19.63;56.03
80511;BME280;69840;53.040;8.600;2023-07-20T13:32:05;101498.22;;;20.46;55.52
80511;BME280;69840;53.040;8.600;2023-07-20T13:36:17;101500.25;;;21.40;52.68
80511;BME280;69840;53.040;8.600;2023-07-20T13:40:30;101488.88;;;20.99;50.20
80511;BME280;69840;53.040;8.600;2023-07-20T13:44:42;101502.25;;;21.19;51.86
80511;BME280;69840;53.040;8.600;2023-07-20T13:48:55;101504.84;;;21.32;55.77
80511;BME280;69840;53.040;8.600;2023-07-20T13:53:09;101504.03;;;21.25;52.50
80511;BME280;69840;53.040;8.600;2023-07-20T13:57:24;101514.75;;;20.43;57.51
80511;BME280;69840;53.040;8.600;2023-07-20T14:01:38;101510.16;;;20.50;59.96
80511;BME280;69840;53.040;8.600;2023-07-20T14:05:51;101509.38;;;20.16;55.55
80511;BME280;69840;53.040;8.600;2023-07-20T14:10:06;101511.47;;;19.88;53.45
80511;BME280;69840;53.040;8.600;2023-07-20T14:14:22;101501.78;;;19.74;58.84
80511;BME280;69840;53.040;8.600;2023-07-20T14:18:35;101510.59;;;20.20;59.57
80511;BME280;69840;53.040;8.600;2023-07-20T14:22:47;101505.69;;;19.65;57.39
80511;BME280;69840;53.040;8.600;2023-07-20T14:27:02;101506.25;;;19.40;57.80
80511;BME280;69840;53.040;8.600;2023-07-20T14:31:15;101508.94;;;19.47;58.78
80511;BME280;69840;53.040;8.600;2023-07-20T14:35:27;101494.97;;;19.65;60.91
80511;BME280;69840;53.040;8.600;2023-07-20T14:39:40;101500.94;;;20.13;57.65
80511;BME280;69840;53.040;8.600;2023-07-20T14:43:52;101505.81;;;20.36;58.35
80511;BME280;69840;53.040;8.600;2023-07-20T14:48:05;101503.94;;;20.56;55.72
80511;BME280;69840;53.040;8.600;2023-07-20T14:52:18;101508.53;;;20.29;55.54
80511;BME280;69840;53.040;8.600;2023-07-20T14:56:30;101505.34;;;21.73;50.22
80511;BME280;69840;53.040;8.600;2023-07-20T15:00:42;101507.81;;;22.24;51.43
80511;BME280;69840;53.040;8.600;2023-07-20T15:04:55;101494.56;;;23.55;50.21
80511;BME280;69840;53.040;8.600;2023-07-20T15:09:08;101493.38;;;23.51;46.15
80511;BME280;69840;53.040;8.600;2023-07-20T15:13:21;101499.75;;;22.42;44.95
80511;BME280;69840;53.040;8.600;2023-07-20T15:17:34;101492.50;;;21.25;47.42
80511;BME280;69840;53.040;8.600;2023-07-20T15:21:48;101496.00;;;20.81;54.20
80511;BME280;69840;53.040;8.600;2023-07-20T15:26:00;101501.34;;;19.83;55.10
80511;BME280;69840;53.040;8.600;2023-07-20T15:30:13;101510.06;;;19.05;65.53
80511;BME280;69840;53.040;8.600;2023-07-20T15:34:46;101502.59;;;18.46;71.06
80511;BME280;69840;53.040;8.600;2023-07-20T15:38:58;101495.88;;;18.56;70.19
80511;BME280;69840;53.040;8.600;2023-07-20T15:43:11;101493.53;;;18.47;71.25
80511;BME280;69840;53.040;8.600;2023-07-20T15:47:26;101489.09;;;18.26;73.68
80511;BME280;69840;53.040;8.600;2023-07-20T15:51:39;101488.97;;;18.06;73.48
80511;BME280;69840;53.040;8.600;2023-07-20T15:55:55;101489.72;;;18.28;73.86
80511;BME280;69840;53.040;8.600;2023-07-20T16:00:07;101484.22;;;17.74;74.46
80511;BME280;69840;53.040;8.600;2023-07-20T16:04:23;101482.84;;;17.63;72.63
80511;BME280;69840;53.040;8.600;2023-07-20T16:08:36;101491.44;;;17.80;72.87
80511;BME280;69840;53.040;8.600;2023-07-20T16:12:49;101485.53;;;17.84;75.47
80511;BME280;69840;53.040;8.600;2023-07-20T16:17:01;101490.53;;;17.94;73.68
80511;BME280;69840;53.040;8.600;2023-07-20T16:21:14;101491.16;;;17.96;74.62
80511;BME280;69840;53.040;8.600;2023-07-20T16:25:26;101478.28;;;18.06;74.78
80511;BME280;69840;53.040;8.600;2023-07-20T16:29:39;101496.38;;;18.04;73.95
80511;BME280;69840;53.040;8.600;2023-07-20T16:33:53;101501.00;;;17.89;72.00
80511;BME280;69840;53.040;8.600;2023-07-20T16:38:16;101505.53;;;17.46;76.75
80511;BME280;69840;53.040;8.600;2023-07-20T16:42:29;101505.06;;;16.56;80.97
80511;BME280;69840;53.040;8.600;2023-07-20T16:46:45;101518.09;;;16.06;82.60
80511;BME280;69840;53.040;8.600;2023-07-20T16:51:01;101508.28;;;15.69;85.89
80511;BME280;69840;53.040;8.600;2023-07-20T16:55:14;101495.56;;;15.57;87.21
80511;BME280;69840;53.040;8.600;2023-07-20T16:59:26;101494.47;;;15.66;87.51
80511;BME280;69840;53.040;8.600;2023-07-20T17:03:39;101488.97;;;15.67;88.31
80511;BME280;69840;53.040;8.600;2023-07-20T17:07:51;101478.91;;;15.92;88.58
80511;BME280;69840;53.040;8.600;2023-07-20T17:12:04;101480.03;;;16.27;89.79
80511;BME280;69840;53.040;8.600;2023-07-20T17:16:17;101481.22;;;16.39;87.82
80511;BME280;69840;53.040;8.600;2023-07-20T17:20:29;101469.72;;;16.09;82.45
80511;BME280;69840;53.040;8.600;2023-07-20T17:24:45;101458.53;;;16.14;85.68
80511;BME280;69840;53.040;8.600;2023-07-20T17:29:00;101467.34;;;16.14;86.70
80511;BME280;69840;53.040;8.600;2023-07-20T17:33:13;101466.06;;;16.25;86.92
80511;BME280;69840;53.040;8.600;2023-07-20T17:37:25;101463.97;;;16.21;86.79
80511;BME280;69840;53.040;8.600;2023-07-20T17:41:37;101454.84;;;16.30;85.56
80511;BME280;69840;53.040;8.600;2023-07-20T17:45:50;101458.88;;;16.40;85.83
80511;BME280;69840;53.040;8.600;2023-07-20T17:50:03;101460.81;;;16.32;84.70
80511;BME280;69840;53.040;8.600;2023-07-20T17:54:15;101453.00;;;16.30;86.23
80511;BME280;69840;53.040;8.600;2023-07-20T17:58:28;101456.38;;;16.39;85.94
80511;BME280;69840;53.040;8.600;2023-07-20T18:02:41;101455.78;;;16.37;84.75
80511;BME280;69840;53.040;8.600;2023-07-20T18:06:53;101446.47;;;16.33;85.45
80511;BME280;69840;53.040;8.600;2023-07-20T18:11:07;101434.06;;;16.10;85.46
80511;BME280;69840;53.040;8.600;2023-07-20T18:15:19;101426.88;;;16.11;86.10
80511;BME280;69840;53.040;8.600;2023-07-20T18:19:32;101427.81;;;16.03;85.68
80511;BME280;69840;53.040;8.600;2023-07-20T18:23:45;101427.25;;;15.93;87.04
80511;BME280;69840;53.040;8.600;2023-07-20T18:27:58;101429.66;;;15.88;87.57
80511;BME280;69840;53.040;8.600;2023-07-20T18:32:10;101432.03;;;15.83;87.73
80511;BME280;69840;53.040;8.600;2023-07-20T18:36:23;101428.06;;;15.79;88.09
80511;BME280;69840;53.040;8.600;2023-07-20T18:40:35;101422.16;;;15.69;87.93
80511;BME280;69840;53.040;8.600;2023-07-20T18:44:48;101426.78;;;15.52;88.32
80511;BME280;69840;53.040;8.600;2023-07-20T18:49:00;101422.63;;;15.50;88.54
80511;BME280;69840;53.040;8.600;2023-07-20T18:53:13;101424.56;;;15.41;88.46
80511;BME280;69840;53.040;8.600;2023-07-20T18:57:25;101424.69;;;15.25;89.18
80511;BME280;69840;53.040;8.600;2023-07-20T19:01:38;101421.59;;;15.13;90.15
80511;BME280;69840;53.040;8.600;2023-07-20T19:05:51;101418.19;;;15.04;90.29
80511;BME280;69840;53.040;8.600;2023-07-20T19:10:03;101419.34;;;15.02;89.65
80511;BME280;69840;53.040;8.600;2023-07-20T19:14:16;101421.25;;;14.93;90.00
80511;BME280;69840;53.040;8.600;2023-07-20T19:18:32;101424.00;;;14.77;90.92
80511;BME280;69840;53.040;8.600;2023-07-20T19:22:44;101425.72;;;14.70;91.45
80511;BME280;69840;53.040;8.600;2023-07-20T19:26:57;101424.75;;;14.63;91.24
80511;BME280;69840;53.040;8.600;2023-07-20T19:31:10;101425.44;;;14.57;91.58
80511;BME280;69840;53.040;8.600;2023-07-20T19:35:22;101425.66;;;14.47;91.59
80511;BME280;69840;53.040;8.600;2023-07-20T19:39:35;101438.31;;;14.45;91.82
80511;BME280;69840;53.040;8.600;2023-07-20T19:43:47;101438.47;;;14.35;91.58
80511;BME280;69840;53.040;8.600;2023-07-20T19:48:00;101442.69;;;14.22;92.29
80511;BME280;69840;53.040;8.600;2023-07-20T19:52:13;101441.88;;;14.13;92.36
80511;BME280;69840;53.040;8.600;2023-07-20T19:56:25;101447.03;;;14.07;92.63
80511;BME280;69840;53.040;8.600;2023-07-20T20:00:39;101452.03;;;14.01;92.68
80511;BME280;69840;53.040;8.600;2023-07-20T20:04:55;101450.22;;;13.94;92.56
80511;BME280;69840;53.040;8.600;2023-07-20T20:09:07;101455.03;;;13.90;92.94
80511;BME280;69840;53.040;8.600;2023-07-20T20:13:20;101462.06;;;13.83;92.46
80511;BME280;69840;53.040;8.600;2023-07-20T20:17:33;101461.06;;;13.68;92.48
80511;BME280;69840;53.040;8.600;2023-07-20T20:21:46;101461.56;;;13.63;93.62
80511;BME280;69840;53.040;8.600;2023-07-20T20:25:59;101459.41;;;13.59;93.50
80511;BME280;69840;53.040;8.600;2023-07-20T20:30:11;101455.09;;;13.50;93.04
80511;BME280;69840;53.040;8.600;2023-07-20T20:34:24;101446.78;;;13.45;94.46
80511;BME280;69840;53.040;8.600;2023-07-20T20:38:37;101453.41;;;13.41;94.67
80511;BME280;69840;53.040;8.600;2023-07-20T20:42:49;101450.44;;;13.36;94.67
80511;BME280;69840;53.040;8.600;2023-07-20T20:47:02;101449.44;;;13.28;94.53
80511;BME280;69840;53.040;8.600;2023-07-20T20:51:14;101445.44;;;13.24;94.32
80511;BME280;69840;53.040;8.600;2023-07-20T20:55:27;101454.09;;;13.18;94.26
80511;BME280;69840;53.040;8.600;2023-07-20T20:59:39;101454.41;;;13.15;94.41
80511;BME280;69840;53.040;8.600;2023-07-20T21:03:52;101454.69;;;13.12;94.55
80511;BME280;69840;53.040;8.600;2023-07-20T21:08:05;101455.69;;;13.11;94.74
80511;BME280;69840;53.040;8.600;2023-07-20T21:12:17;101455.38;;;13.06;94.18
80511;BME280;69840;53.040;8.600;2023-07-20T21:16:30;101460.00;;;13.04;94.65
80511;BME280;69840;53.040;8.600;2023-07-20T21:20:43;101450.03;;;12.98;94.56
80511;BME280;69840;53.040;8.600;2023-07-20T21:24:56;101443.38;;;12.94;95.16
80511;BME280;69840;53.040;8.600;2023-07-20T21:29:08;101443.88;;;12.89;94.85
80511;BME280;69840;53.040;8.600;2023-07-20T21:33:21;101441.72;;;12.85;94.95
80511;BME280;69840;53.040;8.600;2023-07-20T21:37:33;101448.00;;;12.84;95.10
80511;BME280;69840;53.040;8.600;2023-07-20T21:41:46;101449.97;;;12.74;96.10
80511;BME280;69840;53.040;8.600;2023-07-20T21:45:59;101451.97;;;12.72;96.67
80511;BME280;69840;53.040;8.600;2023-07-20T21:50:11;101448.31;;;12.73;96.79
80511;BME280;69840;53.040;8.600;2023-07-20T21:54:24;101446.13;;;12.68;96.80
80511;BME280;69840;53.040;8.600;2023-07-20T21:58:36;101443.66;;;12.67;96.62
80511;BME280;69840;53.040;8.600;2023-07-20T22:02:49;101437.34;;;12.68;96.58
80511;BME280;69840;53.040;8.600;2023-07-20T22:07:02;101425.75;;;12.69;96.52
80511;BME280;69840;53.040;8.600;2023-07-20T22:11:15;101436.72;;;12.74;96.26
80511;BME280;69840;53.040;8.600;2023-07-20T22:15:27;101427.41;;;12.70;96.19